sensor_id;sensor_type;location;lat;lon;timestamp;P1;durP1;ratioP1;P2;durP2;ratioP2
18473;SDS011;30265;52.408;13.500;2023-03-03T00:09:40;21.27;;;7.65;;
18473;SDS011;30265;52.408;13.500;2023-03-03T00:20:07;22.77;;;9.52;;
18473;SDS011;30265;52.408;13.500;2023-03-03T00:30:56;22.35;;;10.27;;
18473;SDS011;30265;52.408;13.500;2023-03-03T00:41:21;24.38;;;9.70;;
18473;SDS011;30265;52.408;13.500;2023-03-03T00:51:44;17.05;;;8.35;;
18473;SDS011;30265;52.408;13.500;2023-03-03T01:02:07;16.30;;;7.55;;
18473;SDS011;30265;52.408;13.500;2023-03-03T01:12:28;35.63;;;13.32;;
18473;SDS011;30265;52.408;13.500;2023-03-03T01:22:54;27.10;;;10.15;;
18473;SDS011;30265;52.408;13.500;2023-03-03T01:33:15;23.88;;;8.45;;
18473;SDS011;30265;52.408;13.500;2023-03-03T01:43:41;27.35;;;10.85;;
18473;SDS011;30265;52.408;13.500;2023-03-03T01:54:04;30.30;;;12.35;;
18473;SDS011;30265;52.408;13.500;2023-03-03T02:04:33;31.83;;;11.63;;
18473;SDS011;30265;52.408;13.500;2023-03-03T02:14:55;31.48;;;11.57;;
18473;SDS011;30265;52.408;13.500;2023-03-03T02:25:20;36.22;;;14.13;;
18473;SDS011;30265;52.408;13.500;2023-03-03T02:35:47;43.65;;;16.38;;
18473;SDS011;30265;52.408;13.500;2023-03-03T02:46:10;33.35;;;14.60;;
18473;SDS011;30265;52.408;13.500;2023-03-03T02:56:33;42.08;;;15.05;;
18473;SDS011;30265;52.408;13.500;2023-03-03T03:06:55;26.10;;;11.52;;
18473;SDS011;30265;52.408;13.500;2023-03-03T03:17:21;43.05;;;16.30;;
18473;SDS011;30265;52.408;13.500;2023-03-03T03:27:44;46.72;;;16.52;;
18473;SDS011;30265;52.408;13.500;2023-03-03T03:38:07;31.23;;;12.65;;
18473;SDS011;30265;52.408;13.500;2023-03-03T03:48:30;26.15;;;9.85;;
18473;SDS011;30265;52.408;13.500;2023-03-03T03:58:54;33.30;;;14.25;;
18473;SDS011;30265;52.408;13.500;2023-03-03T04:09:16;28.67;;;10.60;;
18473;SDS011;30265;52.408;13.500;2023-03-03T04:19:40;47.72;;;16.45;;
18473;SDS011;30265;52.408;13.500;2023-03-03T04:30:02;40.45;;;12.73;;
18473;SDS011;30265;52.408;13.500;2023-03-03T04:40:26;45.75;;;15.88;;
18473;SDS011;30265;52.408;13.500;2023-03-03T04:50:48;42.25;;;13.15;;
18473;SDS011;30265;52.408;13.500;2023-03-03T05:01:12;35.47;;;12.68;;
18473;SDS011;30265;52.408;13.500;2023-03-03T05:11:35;33.10;;;11.35;;
18473;SDS011;30265;52.408;13.500;2023-03-03T05:21:58;37.13;;;13.30;;
18473;SDS011;30265;52.408;13.500;2023-03-03T05:32:19;23.08;;;10.52;;
18473;SDS011;30265;52.408;13.500;2023-03-03T05:42:43;38.97;;;10.90;;
18473;SDS011;30265;52.408;13.500;2023-03-03T05:53:04;19.60;;;8.60;;
18473;SDS011;30265;52.408;13.500;2023-03-03T06:03:27;34.78;;;10.43;;
18473;SDS011;30265;52.408;13.500;2023-03-03T06:13:49;22.67;;;10.50;;
18473;SDS011;30265;52.408;13.500;2023-03-03T06:24:11;35.83;;;12.05;;
18473;SDS011;30265;52.408;13.500;2023-03-03T06:34:33;26.23;;;11.02;;
18473;SDS011;30265;52.408;13.500;2023-03-03T06:44:56;23.67;;;9.57;;
18473;SDS011;30265;52.408;13.500;2023-03-03T06:55:20;24.67;;;10.05;;
18473;SDS011;30265;52.408;13.500;2023-03-03T07:05:44;22.20;;;9.55;;
18473;SDS011;30265;52.408;13.500;2023-03-03T07:16:08;26.90;;;9.40;;
18473;SDS011;30265;52.408;13.500;2023-03-03T07:26:35;30.55;;;9.40;;
18473;SDS011;30265;52.408;13.500;2023-03-03T07:36:57;36.00;;;11.40;;
18473;SDS011;30265;52.408;13.500;2023-03-03T07:47:24;18.65;;;7.90;;
18473;SDS011;30265;52.408;13.500;2023-03-03T07:57:46;19.65;;;8.27;;
18473;SDS011;30265;52.408;13.500;2023-03-03T08:08:17;13.90;;;6.65;;
18473;SDS011;30265;52.408;13.500;2023-03-03T08:18:48;36.55;;;9.18;;
18473;SDS011;30265;52.408;13.500;2023-03-03T08:29:13;23.50;;;8.73;;
18473;SDS011;30265;52.408;13.500;2023-03-03T08:39:34;26.52;;;11.48;;
18473;SDS011;30265;52.408;13.500;2023-03-03T08:49:57;20.23;;;7.80;;
18473;SDS011;30265;52.408;13.500;2023-03-03T09:00:19;23.73;;;9.88;;
18473;SDS011;30265;52.408;13.500;2023-03-03T09:10:42;29.65;;;7.80;;
18473;SDS011;30265;52.408;13.500;2023-03-03T09:21:15;28.67;;;10.48;;
18473;SDS011;30265;52.408;13.500;2023-03-03T09:31:43;28.17;;;8.43;;
18473;SDS011;30265;52.408;13.500;2023-03-03T09:52:59;18.17;;;6.97;;
18473;SDS011;30265;52.408;13.500;2023-03-03T10:14:22;17.43;;;6.77;;
18473;SDS011;30265;52.408;13.500;2023-03-03T10:24:54;17.52;;;5.38;;
18473;SDS011;30265;52.408;13.500;2023-03-03T10:35:29;11.65;;;6.68;;
18473;SDS011;30265;52.408;13.500;2023-03-03T10:46:21;11.48;;;5.75;;
18473;SDS011;30265;52.408;13.500;2023-03-03T10:56:59;18.05;;;6.70;;
18473;SDS011;30265;52.408;13.500;2023-03-03T11:07:28;17.95;;;6.30;;
18473;SDS011;30265;52.408;13.500;2023-03-03T11:28:43;18.08;;;5.95;;
18473;SDS011;30265;52.408;13.500;2023-03-03T11:39:15;13.93;;;5.20;;
18473;SDS011;30265;52.408;13.500;2023-03-03T11:49:39;17.13;;;6.82;;
18473;SDS011;30265;52.408;13.500;2023-03-03T12:00:07;25.40;;;8.95;;
18473;SDS011;30265;52.408;13.500;2023-03-03T12:10:41;24.20;;;8.30;;
18473;SDS011;30265;52.408;13.500;2023-03-03T12:21:14;17.48;;;7.07;;
18473;SDS011;30265;52.408;13.500;2023-03-03T12:31:46;20.37;;;7.00;;
18473;SDS011;30265;52.408;13.500;2023-03-03T12:42:19;16.45;;;7.63;;
18473;SDS011;30265;52.408;13.500;2023-03-03T12:52:45;20.25;;;8.10;;
18473;SDS011;30265;52.408;13.500;2023-03-03T13:03:21;36.08;;;11.80;;
18473;SDS011;30265;52.408;13.500;2023-03-03T13:14:15;19.53;;;7.90;;
18473;SDS011;30265;52.408;13.500;2023-03-03T13:24:53;21.25;;;8.68;;
18473;SDS011;30265;52.408;13.500;2023-03-03T13:35:24;18.52;;;7.90;;
18473;SDS011;30265;52.408;13.500;2023-03-03T13:45:55;21.10;;;9.10;;
18473;SDS011;30265;52.408;13.500;2023-03-03T13:56:25;23.10;;;8.43;;
18473;SDS011;30265;52.408;13.500;2023-03-03T14:06:56;21.23;;;7.43;;
18473;SDS011;30265;52.408;13.500;2023-03-03T14:17:28;21.45;;;9.43;;
18473;SDS011;30265;52.408;13.500;2023-03-03T14:28:00;22.23;;;9.93;;
18473;SDS011;30265;52.408;13.500;2023-03-03T14:38:34;20.02;;;8.65;;
18473;SDS011;30265;52.408;13.500;2023-03-03T14:49:00;15.88;;;8.23;;
18473;SDS011;30265;52.408;13.500;2023-03-03T14:59:23;25.33;;;7.88;;
18473;SDS011;30265;52.408;13.500;2023-03-03T15:09:48;17.65;;;8.07;;
18473;SDS011;30265;52.408;13.500;2023-03-03T15:20:20;18.25;;;7.45;;
18473;SDS011;30265;52.408;13.500;2023-03-03T15:31:01;21.60;;;8.63;;
18473;SDS011;30265;52.408;13.500;2023-03-03T15:41:36;18.70;;;8.75;;
18473;SDS011;30265;52.408;13.500;2023-03-03T15:52:04;14.60;;;7.80;;
18473;SDS011;30265;52.408;13.500;2023-03-03T16:02:44;21.48;;;8.90;;
18473;SDS011;30265;52.408;13.500;2023-03-03T16:13:22;21.42;;;9.30;;
18473;SDS011;30265;52.408;13.500;2023-03-03T16:24:06;21.25;;;9.45;;
18473;SDS011;30265;52.408;13.500;2023-03-03T16:34:43;14.73;;;6.10;;
18473;SDS011;30265;52.408;13.500;2023-03-03T16:45:17;15.18;;;6.45;;
18473;SDS011;30265;52.408;13.500;2023-03-03T16:55:45;16.08;;;8.75;;
18473;SDS011;30265;52.408;13.500;2023-03-03T17:06:18;22.30;;;9.35;;
18473;SDS011;30265;52.408;13.500;2023-03-03T17:16:46;23.60;;;9.25;;
18473;SDS011;30265;52.408;13.500;2023-03-03T17:27:16;15.25;;;8.40;;
18473;SDS011;30265;52.408;13.500;2023-03-03T17:37:51;15.90;;;7.13;;
18473;SDS011;30265;52.408;13.500;2023-03-03T17:59:17;16.35;;;6.22;;
18473;SDS011;30265;52.408;13.500;2023-03-03T18:10:07;20.03;;;8.30;;
18473;SDS011;30265;52.408;13.500;2023-03-03T18:21:07;8.13;;;4.78;;
18473;SDS011;30265;52.408;13.500;2023-03-03T18:31:45;14.25;;;6.85;;
18473;SDS011;30265;52.408;13.500;2023-03-03T19:03:55;16.63;;;7.47;;
18473;SDS011;30265;52.408;13.500;2023-03-03T19:14:31;10.35;;;5.88;;
18473;SDS011;30265;52.408;13.500;2023-03-03T19:25:12;22.27;;;9.52;;
18473;SDS011;30265;52.408;13.500;2023-03-03T19:35:51;16.10;;;7.00;;
18473;SDS011;30265;52.408;13.500;2023-03-03T19:46:42;24.35;;;10.60;;
18473;SDS011;30265;52.408;13.500;2023-03-03T19:57:16;17.50;;;7.95;;
18473;SDS011;30265;52.408;13.500;2023-03-03T20:07:51;32.55;;;13.98;;
18473;SDS011;30265;52.408;13.500;2023-03-03T20:29:17;27.02;;;11.10;;
18473;SDS011;30265;52.408;13.500;2023-03-03T20:39:51;28.90;;;10.98;;
18473;SDS011;30265;52.408;13.500;2023-03-03T20:50:25;31.95;;;11.25;;
18473;SDS011;30265;52.408;13.500;2023-03-03T21:00:53;27.27;;;10.27;;
18473;SDS011;30265;52.408;13.500;2023-03-03T21:11:39;15.25;;;6.55;;
18473;SDS011;30265;52.408;13.500;2023-03-03T21:22:03;21.38;;;9.55;;
18473;SDS011;30265;52.408;13.500;2023-03-03T21:32:34;12.88;;;6.45;;
18473;SDS011;30265;52.408;13.500;2023-03-03T21:42:58;18.55;;;8.07;;
18473;SDS011;30265;52.408;13.500;2023-03-03T21:53:21;18.40;;;7.53;;
18473;SDS011;30265;52.408;13.500;2023-03-03T22:03:45;16.80;;;7.10;;
18473;SDS011;30265;52.408;13.500;2023-03-03T22:14:09;20.30;;;8.23;;
18473;SDS011;30265;52.408;13.500;2023-03-03T22:24:30;20.60;;;9.15;;
18473;SDS011;30265;52.408;13.500;2023-03-03T22:34:54;32.15;;;11.40;;
18473;SDS011;30265;52.408;13.500;2023-03-03T22:57:11;18.50;;;8.23;;
18473;SDS011;30265;52.408;13.500;2023-03-03T23:18:20;17.50;;;8.87;;
18473;SDS011;30265;52.408;13.500;2023-03-03T23:28:42;28.17;;;9.98;;
18473;SDS011;30265;52.408;13.500;2023-03-03T23:39:06;29.73;;;11.48;;
18473;SDS011;30265;52.408;13.500;2023-03-03T23:49:27;29.73;;;11.10;;
18473;SDS011;30265;52.408;13.500;2023-03-03T23:59:50;26.63;;;10.93;;
